Time;durP1;ratioP1;P1;durP2;ratioP2;P2;SDS_P1;SDS_P2;PMS_P1;PMS_P2;Temp;Humidity;BMP_temperature;BMP_pressure;BME280_temperature;BME280_humidity;BME280_pressure;Samples;Min_cycle;Max_cycle;Signal;HPM_P1;HPM_P2
2022/04/13 00:00:28;;;;;;;7.88;3.88;;;16.70;62.70;;;;;;5056523;28;20112;-62
2022/04/13 00:02:54;;;;;;;10.20;3.78;;;16.70;62.90;;;;;;5058652;28;20409;-62
2022/04/13 00:05:20;;;;;;;9.30;3.67;;;16.70;62.90;;;;;;5058184;28;20029;-62
2022/04/13 00:07:46;;;;;;;9.10;4.20;;;16.70;63.00;;;;;;5060621;28;20426;-62
2022/04/13 00:10:12;;;;;;;12.32;4.72;;;16.60;62.80;;;;;;5056023;28;20064;-62
2022/04/13 00:12:38;;;;;;;11.73;4.32;;;16.60;62.90;;;;;;5064438;28;20021;-62
2022/04/13 00:15:05;;;;;;;11.18;4.28;;;16.60;63.00;;;;;;5057425;28;20033;-62
2022/04/13 00:17:32;;;;;;;8.73;3.83;;;16.60;63.00;;;;;;5056271;28;20025;-62
2022/04/13 00:19:58;;;;;;;9.77;4.13;;;16.50;63.10;;;;;;5036245;28;20363;-62
2022/04/13 00:22:24;;;;;;;10.15;4.50;;;16.50;63.10;;;;;;5059795;28;20029;-62
2022/04/13 00:24:50;;;;;;;8.10;4.05;;;16.50;63.20;;;;;;5056811;28;20128;-62
2022/04/13 00:27:15;;;;;;;12.45;4.32;;;16.40;63.30;;;;;;5057687;28;20044;-62
2022/04/13 00:29:41;;;;;;;7.85;3.90;;;16.40;63.30;;;;;;5057201;28;20104;-62
2022/04/13 00:32:07;;;;;;;9.65;4.53;;;16.40;63.30;;;;;;5056209;28;20037;-62
2022/04/13 00:34:33;;;;;;;7.65;4.32;;;16.30;63.40;;;;;;5056335;28;20355;-62
2022/04/13 00:36:58;;;;;;;8.68;4.15;;;16.30;63.50;;;;;;5063105;28;20058;-63
2022/04/13 00:39:27;;;;;;;9.07;4.40;;;16.20;63.50;;;;;;5056796;28;20114;-62
2022/04/13 00:42:03;;;;;;;8.93;4.28;;;16.20;63.70;;;;;;5061249;28;20353;-62
2022/04/13 00:44:29;;;;;;;10.05;4.15;;;16.20;63.80;;;;;;5056621;28;20021;-62
2022/04/13 00:46:56;;;;;;;9.15;4.65;;;16.20;63.80;;;;;;5056860;28;20021;-62
2022/04/13 00:49:23;;;;;;;11.25;4.85;;;16.10;63.80;;;;;;5065217;28;20025;-62
2022/04/13 00:51:50;;;;;;;9.40;4.60;;;16.10;63.80;;;;;;5070904;28;20029;-62
2022/04/13 00:54:18;;;;;;;9.73;4.55;;;16.10;64.60;;;;;;5038698;28;20406;-62
2022/04/13 00:56:47;;;;;;;7.75;4.20;;;16.10;64.10;;;;;;5060038;28;20466;-62
2022/04/13 00:59:14;;;;;;;9.30;4.32;;;16.10;64.20;;;;;;5057062;28;20120;-62
2022/04/13 01:01:42;;;;;;;11.60;4.93;;;16.10;64.30;;;;;;5056262;28;20056;-62
2022/04/13 01:04:11;;;;;;;10.05;4.53;;;16.10;64.40;;;;;;5055784;28;20025;-62
2022/04/13 01:06:38;;;;;;;10.50;4.68;;;16.10;64.40;;;;;;5056383;28;20028;-62
2022/04/13 01:09:04;;;;;;;9.60;4.28;;;16.10;64.50;;;;;;5055700;28;20056;-62
2022/04/13 01:11:30;;;;;;;9.27;4.85;;;16.00;64.40;;;;;;5055087;28;20075;-63
2022/04/13 01:13:56;;;;;;;10.27;4.63;;;16.00;64.50;;;;;;5044525;28;20033;-63
2022/04/13 01:16:23;;;;;;;8.75;3.85;;;16.00;64.70;;;;;;5043361;28;20490;-62
2022/04/13 01:18:50;;;;;;;8.88;4.60;;;16.00;64.70;;;;;;5056104;28;20033;-62
2022/04/13 01:21:17;;;;;;;11.05;4.93;;;16.00;64.80;;;;;;5055765;28;20037;-63
2022/04/13 01:23:43;;;;;;;8.93;4.32;;;15.90;64.80;;;;;;5060540;28;20055;-63
2022/04/13 01:26:10;;;;;;;9.68;4.70;;;15.90;64.80;;;;;;5075981;28;20044;-63
2022/04/13 01:28:36;;;;;;;10.00;4.80;;;15.90;64.90;;;;;;5060053;28;20025;-62
2022/04/13 01:31:02;;;;;;;12.80;5.07;;;15.90;64.90;;;;;;5055745;28;20037;-62
2022/04/13 01:33:30;;;;;;;9.77;4.40;;;15.80;64.90;;;;;;5055436;28;20377;-62
2022/04/13 01:36:02;;;;;;;11.55;5.00;;;15.80;65.00;;;;;;5055503;28;20055;-63
2022/04/13 01:38:28;;;;;;;10.43;4.63;;;15.80;65.10;;;;;;5056812;28;20039;-63
2022/04/13 01:40:55;;;;;;;10.32;4.90;;;15.80;65.20;;;;;;5055416;28;20342;-63
2022/04/13 01:43:21;;;;;;;9.10;4.32;;;15.80;65.30;;;;;;5063996;28;20491;-63
2022/04/13 01:45:46;;;;;;;10.10;4.60;;;15.80;65.30;;;;;;5066741;28;20099;-62
2022/04/13 01:48:12;;;;;;;8.73;4.70;;;15.70;65.30;;;;;;5060792;28;20107;-62
2022/04/13 01:50:37;;;;;;;9.18;4.47;;;15.70;65.40;;;;;;5074363;28;20040;-62
2022/04/13 01:53:03;;;;;;;9.05;4.40;;;15.70;65.40;;;;;;5058687;28;20098;-62
2022/04/13 01:55:29;;;;;;;10.95;4.53;;;15.70;65.40;;;;;;5055236;28;20029;-62
2022/04/13 01:57:54;;;;;;;10.57;5.15;;;15.70;65.40;;;;;;5058995;28;20140;-62
2022/04/13 02:00:20;;;;;;;10.70;4.60;;;15.60;65.30;;;;;;5066451;28;20063;-62
2022/04/13 02:02:46;;;;;;;9.38;4.70;;;15.60;65.20;;;;;;5069310;28;20036;-62
2022/04/13 02:05:12;;;;;;;11.63;4.93;;;15.60;65.20;;;;;;5057442;28;20030;-62
2022/04/13 02:07:38;;;;;;;8.75;4.30;;;15.60;65.10;;;;;;5063187;28;20016;-62
2022/04/13 02:10:05;;;;;;;12.95;4.93;;;15.60;65.10;;;;;;5054825;28;20043;-62
2022/04/13 02:12:32;;;;;;;11.95;4.72;;;15.60;65.00;;;;;;5054324;28;20032;-63
2022/04/13 02:14:57;;;;;;;9.70;4.78;;;15.60;64.90;;;;;;5058413;28;20103;-62
2022/04/13 02:17:23;;;;;;;10.85;4.97;;;15.60;64.80;;;;;;5074904;28;20446;-63
2022/04/13 02:19:49;;;;;;;11.07;4.38;;;15.60;64.80;;;;;;5054246;28;20032;-62
2022/04/13 02:22:15;;;;;;;12.48;4.95;;;15.60;64.70;;;;;;5053655;28;20436;-62
2022/04/13 02:24:40;;;;;;;9.32;4.28;;;15.60;64.50;;;;;;5054346;28;20020;-62
2022/04/13 02:27:07;;;;;;;11.30;5.28;;;15.60;64.40;;;;;;5054652;28;20384;-62
2022/04/13 02:29:34;;;;;;;12.05;4.53;;;15.60;64.30;;;;;;5058619;28;20052;-62
2022/04/13 02:32:01;;;;;;;10.50;4.15;;;15.60;64.20;;;;;;5071123;28;20343;-62
2022/04/13 02:34:26;;;;;;;9.07;4.25;;;15.60;64.10;;;;;;5052130;28;20053;-62
2022/04/13 02:36:52;;;;;;;9.15;4.13;;;15.60;64.10;;;;;;5054579;28;20071;-62
2022/04/13 02:39:17;;;;;;;12.40;4.97;;;15.60;64.20;;;;;;5054459;28;20362;-62
2022/04/13 02:41:43;;;;;;;8.75;4.47;;;15.50;64.10;;;;;;5054187;28;20433;-62
2022/04/13 02:44:09;;;;;;;13.35;4.93;;;15.50;64.10;;;;;;5062624;28;20025;-62
2022/04/13 02:46:35;;;;;;;11.48;4.90;;;15.50;64.10;;;;;;5054473;28;20469;-62
2022/04/13 02:49:00;;;;;;;9.90;4.40;;;15.50;64.10;;;;;;5053785;28;20032;-62
2022/04/13 02:51:26;;;;;;;11.00;4.80;;;15.50;64.00;;;;;;5054405;28;20029;-62
2022/04/13 02:53:52;;;;;;;9.15;5.15;;;15.50;64.00;;;;;;5059772;28;20028;-63
2022/04/13 02:56:17;;;;;;;11.45;4.90;;;15.50;64.10;;;;;;5064716;28;20032;-62
2022/04/13 02:58:43;;;;;;;9.90;5.22;;;15.50;64.10;;;;;;5060866;28;20043;-62
2022/04/13 03:01:09;;;;;;;11.82;4.85;;;15.50;64.10;;;;;;5056504;28;20025;-62
2022/04/13 03:03:35;;;;;;;10.52;4.93;;;15.50;64.20;;;;;;5059256;28;20016;-62
2022/04/13 03:06:00;;;;;;;11.68;5.80;;;15.50;64.10;;;;;;5054182;28;20029;-62
2022/04/13 03:08:26;;;;;;;12.45;5.55;;;15.50;64.10;;;;;;5053642;28;20112;-62
2022/04/13 03:10:53;;;;;;;9.80;5.10;;;15.50;64.10;;;;;;5053913;28;20031;-62
2022/04/13 03:13:18;;;;;;;9.98;5.25;;;15.40;64.10;;;;;;5056363;28;20029;-62
2022/04/13 03:15:44;;;;;;;8.88;5.18;;;15.50;64.20;;;;;;5062391;28;20047;-62
2022/04/13 03:18:09;;;;;;;10.68;5.20;;;15.40;64.20;;;;;;5054529;28;20059;-62
2022/04/13 03:20:35;;;;;;;12.25;6.07;;;15.40;64.40;;;;;;5054760;28;20025;-62
2022/04/13 03:23:02;;;;;;;8.40;5.50;;;15.40;64.40;;;;;;5058362;28;20024;-62
2022/04/13 03:25:28;;;;;;;10.65;6.05;;;15.40;64.50;;;;;;5055287;28;20033;-62
2022/04/13 03:27:54;;;;;;;10.77;5.47;;;15.40;64.60;;;;;;5054303;28;20091;-62
2022/04/13 03:30:21;;;;;;;11.60;6.22;;;15.40;64.60;;;;;;5062166;28;20048;-62
2022/04/13 03:32:47;;;;;;;12.77;5.82;;;15.40;64.60;;;;;;5055894;28;20037;-62
2022/04/13 03:35:13;;;;;;;11.30;6.55;;;15.40;64.60;;;;;;5069877;28;20024;-62
2022/04/13 03:37:40;;;;;;;10.73;5.35;;;15.40;64.70;;;;;;5077323;28;20460;-62
2022/04/13 03:40:08;;;;;;;12.30;5.57;;;15.40;64.90;;;;;;5067476;28;20040;-62
2022/04/13 03:42:37;;;;;;;13.93;5.72;;;15.40;64.90;;;;;;5057479;28;20395;-62
2022/04/13 03:45:04;;;;;;;14.60;5.78;;;15.30;64.90;;;;;;5067117;28;20104;-62
2022/04/13 03:47:30;;;;;;;10.07;5.80;;;15.30;65.10;;;;;;5057794;28;20035;-62
2022/04/13 03:49:56;;;;;;;9.73;5.30;;;15.30;65.10;;;;;;5066144;28;20099;-62
2022/04/13 03:52:22;;;;;;;11.55;6.10;;;15.30;65.20;;;;;;5057708;28;20029;-62
2022/04/13 03:54:47;;;;;;;11.20;5.72;;;15.20;65.40;;;;;;5056362;28;20098;-62
2022/04/13 03:57:13;;;;;;;17.25;6.47;;;15.30;65.60;;;;;;5057345;28;20123;-62
2022/04/13 03:59:38;;;;;;;13.38;6.45;;;15.20;65.60;;;;;;5062860;28;20028;-62
2022/04/13 04:02:04;;;;;;;11.35;6.25;;;15.20;65.60;;;;;;5062259;28;20041;-62
2022/04/13 04:04:30;;;;;;;10.00;6.05;;;15.20;65.80;;;;;;5068984;28;20437;-62
2022/04/13 04:06:55;;;;;;;12.63;6.50;;;15.10;65.80;;;;;;5056121;28;20103;-62
2022/04/13 04:09:21;;;;;;;11.77;6.32;;;15.10;65.80;;;;;;5057080;28;20029;-62
2022/04/13 04:11:46;;;;;;;11.73;6.07;;;15.10;65.90;;;;;;5056197;28;20025;-63
2022/04/13 04:14:12;;;;;;;9.82;5.30;;;15.10;65.90;;;;;;5069070;28;20047;-62
2022/04/13 04:16:37;;;;;;;12.80;6.53;;;15.00;66.00;;;;;;5057024;28;20029;-62
2022/04/13 04:19:03;;;;;;;9.70;6.13;;;15.00;66.10;;;;;;5056795;28;20167;-62
2022/04/13 04:21:29;;;;;;;9.85;6.05;;;15.00;66.30;;;;;;5063013;28;20124;-62
2022/04/13 04:23:54;;;;;;;11.90;6.30;;;14.90;66.40;;;;;;5054939;28;20044;-62
2022/04/13 04:26:20;;;;;;;11.68;6.95;;;14.90;66.50;;;;;;5059426;28;20037;-62
2022/04/13 04:28:45;;;;;;;13.95;6.40;;;14.90;66.60;;;;;;5059609;28;20035;-62
2022/04/13 04:31:11;;;;;;;11.85;6.80;;;14.80;66.70;;;;;;5057687;28;20039;-62
2022/04/13 04:33:37;;;;;;;12.27;6.13;;;14.80;66.70;;;;;;5055562;28;20080;-62
2022/04/13 04:36:04;;;;;;;10.65;6.35;;;14.80;66.70;;;;;;5056514;28;20048;-62
2022/04/13 04:38:32;;;;;;;10.05;6.15;;;14.70;66.70;;;;;;5056595;28;20039;-62
2022/04/13 04:40:59;;;;;;;12.60;6.60;;;14.70;66.80;;;;;;5038378;28;20033;-62
2022/04/13 04:43:25;;;;;;;10.63;6.30;;;14.70;66.90;;;;;;5062991;28;20036;-62
2022/04/13 04:45:51;;;;;;;12.13;7.13;;;14.70;67.00;;;;;;5063858;28;20342;-62
2022/04/13 04:48:16;;;;;;;11.48;6.85;;;14.60;67.00;;;;;;5055891;28;20500;-62
2022/04/13 04:50:42;;;;;;;14.18;7.03;;;14.60;67.10;;;;;;5056065;28;20339;-62
2022/04/13 04:53:07;;;;;;;11.77;6.38;;;14.60;67.20;;;;;;5056477;28;20032;-62
2022/04/13 04:55:33;;;;;;;12.73;6.50;;;14.60;67.30;;;;;;5058795;28;20081;-62
2022/04/13 04:57:59;;;;;;;13.20;6.30;;;14.50;67.30;;;;;;5055706;28;20033;-62
2022/04/13 05:00:24;;;;;;;14.00;7.03;;;14.50;67.30;;;;;;5061412;28;20174;-62
2022/04/13 05:02:51;;;;;;;10.77;6.05;;;14.50;67.40;;;;;;5065357;28;20029;-62
2022/04/13 05:05:18;;;;;;;9.23;5.90;;;14.50;67.50;;;;;;5057381;28;20020;-62
2022/04/13 05:07:44;;;;;;;12.48;7.00;;;14.50;67.60;;;;;;5056405;28;20028;-62
2022/04/13 05:10:10;;;;;;;10.35;6.40;;;14.50;67.60;;;;;;5057621;28;20037;-63
2022/04/13 05:12:51;;;;;;;13.20;7.20;;;14.50;67.70;;;;;;5068323;28;20099;-62
2022/04/13 05:15:17;;;;;;;12.57;6.88;;;14.50;67.90;;;;;;5059540;28;20385;-62
2022/04/13 05:17:43;;;;;;;13.68;6.60;;;14.50;67.80;;;;;;5076047;28;20059;-62
2022/04/13 05:20:10;;;;;;;11.63;7.40;;;14.50;67.90;;;;;;5058045;28;20052;-63
2022/04/13 05:22:36;;;;;;;10.57;6.88;;;14.50;67.90;;;;;;5068170;28;20459;-63
2022/04/13 05:25:09;;;;;;;12.18;7.13;;;14.50;68.50;;;;;;5055883;28;20016;-62
2022/04/13 05:27:35;;;;;;;13.57;8.20;;;14.50;67.90;;;;;;5035858;28;20025;-62
2022/04/13 05:30:03;;;;;;;14.88;7.60;;;14.50;67.90;;;;;;5035855;28;20465;-62
2022/04/13 05:32:29;;;;;;;13.48;7.60;;;14.50;68.00;;;;;;5072847;28;20040;-62
2022/04/13 05:35:00;;;;;;;12.40;7.82;;;14.50;67.90;;;;;;5074578;28;20033;-62
2022/04/13 05:37:26;;;;;;;13.38;7.78;;;14.50;68.00;;;;;;5072173;28;20463;-62
2022/04/13 05:39:52;;;;;;;13.75;7.97;;;14.60;68.00;;;;;;5075328;28;20111;-62
2022/04/13 05:42:24;;;;;;;11.73;7.85;;;14.60;68.00;;;;;;5072919;28;20123;-62
2022/04/13 05:44:51;;;;;;;12.52;7.95;;;14.70;68.00;;;;;;5067957;28;20021;-62
2022/04/13 05:47:17;;;;;;;15.50;8.15;;;14.80;68.10;;;;;;5056359;28;20021;-62
2022/04/13 05:49:44;;;;;;;13.82;8.48;;;14.80;68.00;;;;;;5054930;28;20025;-62
2022/04/13 05:52:09;;;;;;;14.40;8.77;;;14.80;68.00;;;;;;5050724;28;20461;-63
2022/04/13 05:54:35;;;;;;;13.90;8.60;;;14.90;67.90;;;;;;5043523;28;20034;-63
2022/04/13 05:57:02;;;;;;;13.32;8.52;;;15.00;67.90;;;;;;5041854;28;20025;-63
2022/04/13 05:59:28;;;;;;;12.27;8.45;;;15.00;67.90;;;;;;5056122;28;20078;-63
2022/04/13 06:01:54;;;;;;;22.63;9.35;;;15.00;67.80;;;;;;5058412;28;20033;-62
2022/04/13 06:04:20;;;;;;;12.70;8.50;;;15.10;67.80;;;;;;5051936;28;20087;-62
2022/04/13 06:06:45;;;;;;;14.77;9.30;;;15.10;67.80;;;;;;5052103;28;20025;-63
2022/04/13 06:09:11;;;;;;;16.90;9.60;;;15.20;67.80;;;;;;5051603;28;20025;-63
2022/04/13 06:11:36;;;;;;;16.75;10.05;;;15.20;67.70;;;;;;5050210;28;20095;-63
2022/04/13 06:14:02;;;;;;;14.63;8.82;;;15.30;67.60;;;;;;5047047;28;20071;-63
2022/04/13 06:16:28;;;;;;;14.73;10.40;;;15.40;67.50;;;;;;5055707;28;20032;-63
2022/04/13 06:18:54;;;;;;;14.30;9.90;;;15.40;67.40;;;;;;5054990;28;20100;-63
2022/04/13 06:21:19;;;;;;;18.15;10.60;;;15.40;67.50;;;;;;5056007;28;20037;-63
2022/04/13 06:23:45;;;;;;;13.95;9.85;;;15.40;67.50;;;;;;5051817;28;20032;-63
2022/04/13 06:26:11;;;;;;;15.68;10.55;;;15.40;67.50;;;;;;5064635;28;20025;-63
2022/04/13 06:28:36;;;;;;;17.58;10.43;;;15.40;67.60;;;;;;5061625;28;20031;-63
2022/04/13 06:31:02;;;;;;;17.67;10.07;;;15.40;67.60;;;;;;5054082;28;20119;-64
2022/04/13 06:33:27;;;;;;;15.90;9.93;;;15.40;67.50;;;;;;5054769;28;20060;-64
2022/04/13 06:35:53;;;;;;;18.15;10.07;;;15.50;67.50;;;;;;5053940;28;20502;-63
2022/04/13 06:38:19;;;;;;;15.35;10.32;;;15.70;67.30;;;;;;5065765;28;20032;-63
2022/04/13 06:40:44;;;;;;;13.63;9.77;;;15.90;66.80;;;;;;5053177;28;20029;-63
2022/04/13 06:43:10;;;;;;;15.20;10.15;;;16.10;66.50;;;;;;5052494;28;20021;-63
2022/04/13 06:45:36;;;;;;;13.85;9.93;;;16.30;66.10;;;;;;5041505;28;20025;-63
2022/04/13 06:48:03;;;;;;;17.80;10.10;;;16.50;65.70;;;;;;5052578;28;20044;-63
2022/04/13 06:50:28;;;;;;;16.42;11.15;;;16.60;65.30;;;;;;5058531;28;20027;-63
2022/04/13 06:52:54;;;;;;;18.33;11.40;;;16.70;65.30;;;;;;5041035;28;20116;-64
2022/04/13 06:55:19;;;;;;;16.73;11.18;;;16.60;65.20;;;;;;5037743;28;20029;-64
2022/04/13 06:57:45;;;;;;;18.45;11.27;;;16.70;65.30;;;;;;5041374;28;20112;-64
2022/04/13 07:00:12;;;;;;;16.17;11.32;;;16.70;65.30;;;;;;5036988;28;20072;-63
2022/04/13 07:02:39;;;;;;;16.70;11.63;;;16.80;65.30;;;;;;5042062;28;20120;-64
2022/04/13 07:05:05;;;;;;;18.70;12.13;;;16.90;65.20;;;;;;5047235;28;20029;-63
2022/04/13 07:07:31;;;;;;;19.98;11.50;;;17.10;64.80;;;;;;5052639;28;20036;-63
2022/04/13 07:09:57;;;;;;;17.13;12.02;;;17.20;64.60;;;;;;5057057;28;20025;-63
2022/04/13 07:12:23;;;;;;;18.20;12.13;;;17.30;64.30;;;;;;5049806;28;20060;-63
2022/04/13 07:14:48;;;;;;;18.00;12.35;;;17.40;64.10;;;;;;5048747;28;20029;-64
2022/04/13 07:17:14;;;;;;;17.17;12.27;;;17.40;64.10;;;;;;5051024;28;20025;-63
2022/04/13 07:19:39;;;;;;;17.52;11.77;;;17.50;64.10;;;;;;5055490;28;20085;-63
2022/04/13 07:22:06;;;;;;;17.77;12.25;;;17.40;64.10;;;;;;5053804;28;20354;-62
2022/04/13 07:24:31;;;;;;;17.35;12.55;;;17.30;64.30;;;;;;5049427;28;20082;-61
2022/04/13 07:26:57;;;;;;;18.38;13.15;;;17.20;65.20;;;;;;5055336;28;20338;-61
2022/04/13 07:29:23;;;;;;;21.27;13.55;;;17.20;64.90;;;;;;5054907;28;20394;-62
2022/04/13 07:31:49;;;;;;;18.40;12.57;;;17.10;65.20;;;;;;5055953;28;20041;-63
2022/04/13 07:34:15;;;;;;;20.92;12.85;;;17.00;65.50;;;;;;5044602;28;20106;-62
2022/04/13 07:36:40;;;;;;;20.63;12.95;;;17.00;65.60;;;;;;5043161;28;20025;-62
2022/04/13 07:39:06;;;;;;;18.48;13.23;;;17.00;65.80;;;;;;5057930;28;20572;-63
2022/04/13 07:41:32;;;;;;;18.90;12.82;;;17.00;66.40;;;;;;5056984;28;20426;-63
2022/04/13 07:44:00;;;;;;;17.58;12.23;;;17.00;65.80;;;;;;5055281;28;20021;-62
2022/04/13 07:46:27;;;;;;;18.35;12.55;;;17.10;65.70;;;;;;5045626;28;20108;-64
2022/04/13 07:48:54;;;;;;;18.40;13.30;;;17.20;65.60;;;;;;5062211;28;20352;-63
2022/04/13 07:51:20;;;;;;;19.50;13.35;;;17.30;65.60;;;;;;5056266;28;20025;-62
2022/04/13 07:53:45;;;;;;;20.38;14.05;;;17.30;65.50;;;;;;5058313;28;20029;-63
2022/04/13 07:56:11;;;;;;;19.63;13.45;;;17.30;65.50;;;;;;5069805;28;20032;-63
2022/04/13 07:58:39;;;;;;;18.73;12.73;;;17.30;65.60;;;;;;5061241;28;20033;-62
2022/04/13 08:01:05;;;;;;;20.20;13.40;;;17.30;65.70;;;;;;5056689;28;20033;-62
2022/04/13 08:03:31;;;;;;;22.25;13.75;;;17.20;65.90;;;;;;5058164;28;20082;-62
2022/04/13 08:05:58;;;;;;;20.75;13.73;;;17.10;66.00;;;;;;5056993;28;20044;-63
2022/04/13 08:08:23;;;;;;;18.83;13.13;;;17.10;66.20;;;;;;5056986;28;20029;-63
2022/04/13 08:10:49;;;;;;;22.67;13.57;;;17.10;66.40;;;;;;5062209;28;20041;-62
2022/04/13 08:13:14;;;;;;;21.27;13.35;;;17.10;66.40;;;;;;5064053;28;20020;-63
2022/04/13 08:15:40;;;;;;;19.02;13.13;;;17.10;66.40;;;;;;5063515;28;20331;-63
2022/04/13 08:18:06;;;;;;;17.88;12.40;;;17.10;66.20;;;;;;5061104;28;20056;-63
2022/04/13 08:20:31;;;;;;;19.13;12.70;;;17.20;66.20;;;;;;5076716;28;20044;-66
2022/04/13 08:22:57;;;;;;;17.20;12.23;;;17.20;66.00;;;;;;5071892;28;20056;-63
2022/04/13 08:25:23;;;;;;;17.10;13.30;;;17.30;66.00;;;;;;5039094;28;20033;-63
2022/04/13 08:27:49;;;;;;;17.73;11.60;;;17.40;66.00;;;;;;5054863;28;20025;-64
2022/04/13 08:30:15;;;;;;;20.73;13.57;;;17.40;65.90;;;;;;5075788;28;20119;-63
2022/04/13 08:32:41;;;;;;;17.02;11.48;;;17.50;65.70;;;;;;5063608;28;20048;-63
2022/04/13 08:35:09;;;;;;;18.67;12.55;;;17.60;65.60;;;;;;5064360;28;20421;-63
2022/04/13 08:37:36;;;;;;;17.98;12.45;;;17.70;65.40;;;;;;5052062;28;20037;-64
2022/04/13 08:40:03;;;;;;;17.30;11.93;;;17.80;65.30;;;;;;5056623;28;20029;-63
2022/04/13 08:42:58;;;;;;;17.90;12.70;;;18.10;65.00;;;;;;5033344;28;20039;-63
2022/04/13 08:45:25;;;;;;;14.70;10.80;;;18.50;64.20;;;;;;5036328;28;20033;-63
2022/04/13 08:48:00;;;;;;;17.95;11.27;;;18.80;63.40;;;;;;5044469;28;20031;-63
2022/04/13 08:50:30;;;;;;;16.95;10.00;;;19.20;62.70;;;;;;5054727;28;20507;-63
2022/04/13 08:53:02;;;;;;;15.70;10.18;;;19.60;61.80;;;;;;5054575;28;20040;-63
2022/04/13 08:55:30;;;;;;;16.52;10.32;;;19.90;61.00;;;;;;5054415;28;20083;-64
2022/04/13 08:58:13;;;;;;;15.80;10.05;;;20.00;60.50;;;;;;5064442;28;20520;-63
2022/04/13 09:00:48;;;;;;;12.65;8.95;;;20.20;59.70;;;;;;5055018;28;20361;-63
2022/04/13 09:03:43;;;;;;;14.32;9.20;;;20.30;59.60;;;;;;5062996;28;20048;-63
2022/04/13 09:06:10;;;;;;;11.93;7.93;;;20.30;59.30;;;;;;5036439;28;20021;-63
2022/04/13 09:08:35;;;;;;;11.70;8.45;;;20.30;59.20;;;;;;5065309;28;20033;-63
2022/04/13 09:11:03;;;;;;;12.13;7.30;;;20.30;58.90;;;;;;5055372;28;20034;-63
2022/04/13 09:13:32;;;;;;;10.93;6.75;;;20.30;58.70;;;;;;5055238;28;20029;-63
2022/04/13 09:15:58;;;;;;;10.93;6.78;;;20.30;58.70;;;;;;5055520;28;20025;-63
2022/04/13 09:18:24;;;;;;;11.98;6.20;;;20.20;58.60;;;;;;5054855;28;20075;-64
2022/04/13 09:20:50;;;;;;;11.38;6.03;;;20.30;58.50;;;;;;5055733;28;20061;-63
2022/04/13 09:23:16;;;;;;;9.50;5.28;;;20.50;58.00;;;;;;5054920;28;20025;-63
2022/04/13 09:25:43;;;;;;;9.18;4.57;;;20.70;57.40;;;;;;5055876;28;20043;-63
2022/04/13 09:28:08;;;;;;;8.20;3.92;;;20.80;57.50;;;;;;5055748;28;20090;-63
2022/04/13 09:30:36;;;;;;;7.70;3.50;;;20.90;56.30;;;;;;5054149;28;21670;-64
2022/04/13 09:33:02;;;;;;;8.93;4.25;;;21.10;56.10;;;;;;5054820;28;20045;-64
2022/04/13 09:35:31;;;;;;;9.48;3.40;;;21.20;55.70;;;;;;5055157;28;20033;-64
2022/04/13 09:38:01;;;;;;;6.82;3.45;;;21.40;56.10;;;;;;5053955;28;20025;-64
2022/04/13 09:40:32;;;;;;;7.75;3.45;;;21.60;55.10;;;;;;5054173;28;20055;-64
2022/04/13 09:43:24;;;;;;;9.05;3.53;;;21.90;54.60;;;;;;5058825;28;20357;-64
2022/04/13 09:45:52;;;;;;;6.63;3.40;;;22.20;54.30;;;;;;5050404;28;20044;-63
2022/04/13 09:48:17;;;;;;;8.18;3.60;;;22.20;53.90;;;;;;5059602;28;20020;-63
2022/04/13 09:50:44;;;;;;;8.52;3.88;;;22.30;54.30;;;;;;5060507;28;20048;-63
2022/04/13 09:53:12;;;;;;;7.72;4.00;;;22.40;53.60;;;;;;5039703;28;20311;-63
2022/04/13 09:55:52;;;;;;;8.35;4.28;;;22.30;53.50;;;;;;5063280;28;20127;-64
2022/04/13 09:58:19;;;;;;;10.05;4.05;;;22.20;53.60;;;;;;5056248;28;20025;-63
2022/04/13 10:00:47;;;;;;;8.18;4.13;;;22.00;53.90;;;;;;5053546;28;20104;-63
2022/04/13 10:03:19;;;;;;;8.60;4.43;;;21.80;54.20;;;;;;5056165;28;20043;-63
2022/04/13 10:05:46;;;;;;;8.27;4.53;;;21.60;54.50;;;;;;5054680;28;20462;-64
2022/04/13 10:08:14;;;;;;;9.77;5.40;;;21.40;54.80;;;;;;5056154;28;20404;-63
2022/04/13 10:10:42;;;;;;;9.63;4.28;;;21.10;55.10;;;;;;5064121;28;20052;-63
2022/04/13 10:13:07;;;;;;;8.95;4.82;;;21.00;55.50;;;;;;5054748;28;20107;-63
2022/04/13 10:15:33;;;;;;;10.07;4.57;;;20.80;55.90;;;;;;5061538;28;20072;-63
2022/04/13 10:18:00;;;;;;;9.75;5.05;;;20.70;56.80;;;;;;5054571;28;20044;-63
2022/04/13 10:20:42;;;;;;;9.43;5.20;;;20.60;56.50;;;;;;5062597;28;20102;-63
2022/04/13 10:23:08;;;;;;;10.45;4.93;;;20.40;56.90;;;;;;5053558;28;20037;-62
2022/04/13 10:25:34;;;;;;;8.63;4.70;;;20.20;57.10;;;;;;5054213;28;20058;-64
2022/04/13 10:28:01;;;;;;;9.77;5.68;;;20.10;57.50;;;;;;5054262;28;20438;-64
2022/04/13 10:30:37;;;;;;;8.40;4.97;;;20.00;57.80;;;;;;5062924;28;20021;-63
2022/04/13 10:33:11;;;;;;;12.25;5.72;;;19.90;58.10;;;;;;5058680;28;20142;-63
2022/04/13 10:35:43;;;;;;;9.77;4.50;;;19.90;58.40;;;;;;5052314;28;20051;-63
2022/04/13 10:38:09;;;;;;;9.60;5.20;;;19.80;58.30;;;;;;5055571;28;20074;-63
2022/04/13 10:40:40;;;;;;;8.75;4.20;;;19.80;58.30;;;;;;5055905;28;20036;-63
2022/04/13 10:43:07;;;;;;;7.88;3.97;;;19.70;58.30;;;;;;5056355;28;20124;-64
2022/04/13 10:45:34;;;;;;;9.43;4.82;;;19.70;58.30;;;;;;5046872;28;20100;-62
2022/04/13 10:48:09;;;;;;;7.45;4.00;;;19.60;58.30;;;;;;5008680;28;20128;-62
2022/04/13 10:50:54;;;;;;;9.13;4.30;;;19.50;58.30;;;;;;5035550;28;20354;-62
2022/04/13 10:54:00;;;;;;;8.20;4.13;;;19.40;58.40;;;;;;5033321;28;20052;-62
2022/04/13 10:56:32;;;;;;;8.98;4.20;;;19.40;58.70;;;;;;5031760;28;21062;-62
2022/04/13 10:59:20;;;;;;;9.05;3.42;;;19.30;58.80;;;;;;5037471;28;20099;-62
2022/04/13 11:01:53;;;;;;;9.95;3.65;;;19.20;59.00;;;;;;5050885;28;20037;-62
2022/04/13 11:04:22;;;;;;;8.10;3.70;;;19.20;59.20;;;;;;5038768;28;20379;-62
2022/04/13 11:06:48;;;;;;;8.13;4.15;;;19.20;59.20;;;;;;5033049;28;20458;-62
2022/04/13 11:09:25;;;;;;;10.32;4.60;;;19.00;59.30;;;;;;5035519;28;20032;-62
2022/04/13 11:11:53;;;;;;;8.18;4.40;;;18.90;59.50;;;;;;5062756;28;20032;-62
2022/04/13 11:14:21;;;;;;;9.05;4.22;;;18.90;59.60;;;;;;5053766;28;20037;-62
2022/04/13 11:16:46;;;;;;;10.77;4.88;;;18.80;59.80;;;;;;5052412;28;20360;-62
2022/04/13 11:19:12;;;;;;;12.05;4.40;;;18.90;60.10;;;;;;5040499;28;20037;-62
2022/04/13 11:21:50;;;;;;;10.70;5.05;;;19.00;60.10;;;;;;5053179;28;20079;-62
2022/04/13 11:24:32;;;;;;;8.95;4.15;;;18.90;60.00;;;;;;5059008;28;20024;-62
2022/04/13 11:26:58;;;;;;;10.07;4.93;;;19.00;60.00;;;;;;5055122;28;20414;-62
2022/04/13 11:29:32;;;;;;;10.68;4.70;;;18.90;60.00;;;;;;5060929;28;20028;-62
2022/04/13 11:32:01;;;;;;;10.50;5.20;;;18.90;60.30;;;;;;5072838;28;20113;-62
2022/04/13 11:34:31;;;;;;;11.57;5.20;;;18.80;60.30;;;;;;5068464;28;20048;-62
2022/04/13 11:37:02;;;;;;;9.93;4.88;;;18.80;60.40;;;;;;5055030;28;20398;-62
2022/04/13 11:39:57;;;;;;;10.15;5.43;;;18.90;60.60;;;;;;5061133;28;20325;-62
2022/04/13 11:42:25;;;;;;;9.65;5.00;;;18.80;60.50;;;;;;5061395;28;20032;-62
2022/04/13 11:44:51;;;;;;;8.55;4.82;;;18.80;60.60;;;;;;5062486;28;20094;-62
2022/04/13 11:47:18;;;;;;;14.15;5.18;;;18.80;60.70;;;;;;5073223;28;20025;-62
2022/04/13 11:50:00;;;;;;;15.30;6.05;;;18.80;60.80;;;;;;5054616;28;20025;-63
2022/04/13 11:52:46;;;;;;;11.10;5.57;;;18.80;60.90;;;;;;5071219;28;20021;-62
2022/04/13 11:55:40;;;;;;;9.43;5.03;;;18.70;60.90;;;;;;5075898;28;20075;-62
2022/04/13 11:58:08;;;;;;;9.77;4.60;;;18.70;60.90;;;;;;5077223;28;20032;-62
2022/04/13 12:00:55;;;;;;;10.55;5.10;;;18.70;60.90;;;;;;5063859;28;20048;-62
2022/04/13 12:03:38;;;;;;;9.40;4.65;;;18.60;61.00;;;;;;5059646;28;20127;-62
2022/04/13 12:06:15;;;;;;;11.05;5.32;;;18.60;61.00;;;;;;5072548;28;20059;-62
2022/04/13 12:08:54;;;;;;;11.40;5.38;;;18.60;61.20;;;;;;5074195;28;20094;-62
2022/04/13 12:11:22;;;;;;;11.32;5.20;;;18.60;61.40;;;;;;5076570;28;20450;-62
2022/04/13 12:13:52;;;;;;;10.90;5.57;;;18.50;61.50;;;;;;5069135;28;20450;-62
2022/04/13 12:16:19;;;;;;;8.80;4.93;;;18.50;61.60;;;;;;5075716;28;20032;-62
2022/04/13 12:18:45;;;;;;;9.38;5.55;;;18.50;61.70;;;;;;5077042;28;20365;-62
2022/04/13 12:21:12;;;;;;;9.35;5.10;;;18.50;61.80;;;;;;5058411;28;20025;-62
2022/04/13 12:23:39;;;;;;;10.45;6.00;;;18.50;61.90;;;;;;5055929;28;20349;-62
2022/04/13 12:26:06;;;;;;;13.88;6.47;;;18.40;62.10;;;;;;5058064;28;20446;-62
2022/04/13 12:28:32;;;;;;;10.15;5.32;;;18.50;62.20;;;;;;5057036;28;20120;-63
2022/04/13 12:31:08;;;;;;;9.52;5.18;;;18.50;62.30;;;;;;5055988;28;20041;-62
2022/04/13 12:33:35;;;;;;;10.93;5.88;;;18.50;62.50;;;;;;5060428;28;20045;-62
2022/04/13 12:36:05;;;;;;;10.45;4.85;;;18.50;62.50;;;;;;5056772;28;20033;-62
2022/04/13 12:38:36;;;;;;;12.50;5.30;;;18.50;62.60;;;;;;5056087;28;20025;-62
2022/04/13 12:41:02;;;;;;;;;;;18.50;62.60;;;;;;5062447;28;20333;-62